sensor_id;sensor_type;location;lat;lon;timestamp;pressure;altitude;pressure_sealevel;temperature;humidity
72370;BME280;60343;-32.030;115.880;2023-07-22T00:02:30;103621.78;;;8.60;99.75
72370;BME280;60343;-32.030;115.880;2023-07-22T00:05:06;103635.75;;;8.79;99.18
72370;BME280;60343;-32.030;115.880;2023-07-22T00:07:42;103647.22;;;8.95;99.14
72370;BME280;60343;-32.030;115.880;2023-07-22T00:10:18;103659.63;;;9.11;99.53
72370;BME280;60343;-32.030;115.880;2023-07-22T00:12:53;103657.69;;;9.28;99.83
72370;BME280;60343;-32.030;115.880;2023-07-22T00:15:35;103663.59;;;9.47;100.00
72370;BME280;60343;-32.030;115.880;2023-07-22T00:18:10;103668.47;;;9.69;100.00
72370;BME280;60343;-32.030;115.880;2023-07-22T00:20:45;103668.38;;;9.85;100.00
72370;BME280;60343;-32.030;115.880;2023-07-22T00:23:21;103673.03;;;9.96;100.00
72370;BME280;60343;-32.030;115.880;2023-07-22T00:25:58;103683.16;;;10.19;100.00
72370;BME280;60343;-32.030;115.880;2023-07-22T00:28:33;103685.19;;;10.42;99.67
72370;BME280;60343;-32.030;115.880;2023-07-22T00:31:15;103688.06;;;10.66;99.47
72370;BME280;60343;-32.030;115.880;2023-07-22T00:33:51;103685.47;;;10.91;99.14
72370;BME280;60343;-32.030;115.880;2023-07-22T00:36:27;103692.00;;;11.12;98.17
72370;BME280;60343;-32.030;115.880;2023-07-22T00:39:03;103685.81;;;11.37;96.61
72370;BME280;60343;-32.030;115.880;2023-07-22T00:41:39;103685.06;;;11.73;96.34
72370;BME280;60343;-32.030;115.880;2023-07-22T00:44:15;103692.81;;;12.14;92.39
72370;BME280;60343;-32.030;115.880;2023-07-22T00:46:58;103699.47;;;12.93;93.21
72370;BME280;60343;-32.030;115.880;2023-07-22T00:49:33;103701.31;;;13.38;85.70
72370;BME280;60343;-32.030;115.880;2023-07-22T00:52:09;103699.66;;;13.82;84.49
72370;BME280;60343;-32.030;115.880;2023-07-22T00:54:45;103693.22;;;14.27;78.52
72370;BME280;60343;-32.030;115.880;2023-07-22T00:57:22;103685.81;;;15.04;78.68
72370;BME280;60343;-32.030;115.880;2023-07-22T00:59:57;103696.84;;;15.54;74.02
72370;BME280;60343;-32.030;115.880;2023-07-22T01:02:39;103691.19;;;15.97;71.32
72370;BME280;60343;-32.030;115.880;2023-07-22T01:05:14;103700.69;;;16.50;69.70
72370;BME280;60343;-32.030;115.880;2023-07-22T01:07:50;103693.50;;;16.80;67.62
72370;BME280;60343;-32.030;115.880;2023-07-22T01:10:25;103683.44;;;17.28;67.02
72370;BME280;60343;-32.030;115.880;2023-07-22T01:13:01;103685.09;;;17.48;65.54
72370;BME280;60343;-32.030;115.880;2023-07-22T01:15:37;103685.41;;;17.82;63.22
72370;BME280;60343;-32.030;115.880;2023-07-22T01:18:19;103689.06;;;18.00;63.14
72370;BME280;60343;-32.030;115.880;2023-07-22T01:20:55;103690.78;;;18.19;62.78
72370;BME280;60343;-32.030;115.880;2023-07-22T01:23:36;103691.91;;;18.44;60.43
72370;BME280;60343;-32.030;115.880;2023-07-22T01:26:13;103687.00;;;18.75;59.62
72370;BME280;60343;-32.030;115.880;2023-07-22T01:28:48;103694.25;;;18.92;58.84
72370;BME280;60343;-32.030;115.880;2023-07-22T01:31:23;103695.50;;;18.80;58.45
72370;BME280;60343;-32.030;115.880;2023-07-22T01:33:59;103690.81;;;19.08;58.74
72370;BME280;60343;-32.030;115.880;2023-07-22T01:36:34;103694.13;;;19.19;57.33
72370;BME280;60343;-32.030;115.880;2023-07-22T01:39:17;103691.72;;;19.42;57.01
72370;BME280;60343;-32.030;115.880;2023-07-22T01:41:52;103691.63;;;19.78;57.51
72370;BME280;60343;-32.030;115.880;2023-07-22T01:44:28;103686.97;;;20.04;55.88
72370;BME280;60343;-32.030;115.880;2023-07-22T01:47:04;103680.16;;;20.42;55.20
72370;BME280;60343;-32.030;115.880;2023-07-22T01:49:39;103687.69;;;20.72;54.64
72370;BME280;60343;-32.030;115.880;2023-07-22T01:52:14;103687.66;;;20.88;53.17
72370;BME280;60343;-32.030;115.880;2023-07-22T01:54:55;103677.59;;;20.73;53.21
72370;BME280;60343;-32.030;115.880;2023-07-22T01:57:33;103672.84;;;20.99;53.49
72370;BME280;60343;-32.030;115.880;2023-07-22T02:00:09;103670.13;;;21.23;52.21
72370;BME280;60343;-32.030;115.880;2023-07-22T02:02:45;103660.59;;;21.19;51.95
72370;BME280;60343;-32.030;115.880;2023-07-22T02:05:20;103657.84;;;21.35;51.37
72370;BME280;60343;-32.030;115.880;2023-07-22T02:07:56;103651.66;;;21.50;50.81
72370;BME280;60343;-32.030;115.880;2023-07-22T02:10:38;103644.44;;;21.65;49.97
72370;BME280;60343;-32.030;115.880;2023-07-22T02:13:13;103656.75;;;21.61;51.42
72370;BME280;60343;-32.030;115.880;2023-07-22T02:15:48;103651.88;;;21.87;51.33
72370;BME280;60343;-32.030;115.880;2023-07-22T02:18:23;103652.69;;;22.27;49.54
72370;BME280;60343;-32.030;115.880;2023-07-22T02:20:59;103641.00;;;22.41;49.22
72370;BME280;60343;-32.030;115.880;2023-07-22T02:23:34;103641.41;;;22.30;48.90
72370;BME280;60343;-32.030;115.880;2023-07-22T02:26:16;103642.31;;;22.45;48.99
72370;BME280;60343;-32.030;115.880;2023-07-22T02:28:51;103642.22;;;22.38;48.44
72370;BME280;60343;-32.030;115.880;2023-07-22T02:31:27;103646.25;;;22.65;48.30
72370;BME280;60343;-32.030;115.880;2023-07-22T02:34:02;103648.47;;;22.47;47.55
72370;BME280;60343;-32.030;115.880;2023-07-22T02:36:38;103647.47;;;22.40;49.43
72370;BME280;60343;-32.030;115.880;2023-07-22T02:39:13;103642.13;;;22.23;47.83
72370;BME280;60343;-32.030;115.880;2023-07-22T02:41:55;103647.16;;;22.35;47.27
72370;BME280;60343;-32.030;115.880;2023-07-22T02:44:30;103647.00;;;22.36;47.04
72370;BME280;60343;-32.030;115.880;2023-07-22T02:47:06;103645.59;;;22.63;46.58
72370;BME280;60343;-32.030;115.880;2023-07-22T02:49:42;103645.69;;;22.69;44.90
72370;BME280;60343;-32.030;115.880;2023-07-22T02:52:17;103644.75;;;22.62;46.13
72370;BME280;60343;-32.030;115.880;2023-07-22T02:55:07;103650.63;;;22.74;45.83
72370;BME280;60343;-32.030;115.880;2023-07-22T02:57:49;103650.16;;;22.71;43.53
72370;BME280;60343;-32.030;115.880;2023-07-22T03:00:25;103650.63;;;22.74;43.95
72370;BME280;60343;-32.030;115.880;2023-07-22T03:03:00;103647.00;;;22.36;43.27
72370;BME280;60343;-32.030;115.880;2023-07-22T03:05:36;103651.13;;;22.01;44.23
72370;BME280;60343;-32.030;115.880;2023-07-22T03:08:11;103652.03;;;21.86;43.98
72370;BME280;60343;-32.030;115.880;2023-07-22T03:10:47;103651.06;;;21.70;44.46
72370;BME280;60343;-32.030;115.880;2023-07-22T03:13:28;103653.00;;;21.62;44.12
72370;BME280;60343;-32.030;115.880;2023-07-22T03:16:04;103649.78;;;21.50;44.47
72370;BME280;60343;-32.030;115.880;2023-07-22T03:18:39;103641.66;;;21.42;46.52
72370;BME280;60343;-32.030;115.880;2023-07-22T03:21:15;103626.97;;;21.51;45.88
72370;BME280;60343;-32.030;115.880;2023-07-22T03:23:50;103621.84;;;21.56;45.12
72370;BME280;60343;-32.030;115.880;2023-07-22T03:26:26;103620.94;;;21.64;45.67
72370;BME280;60343;-32.030;115.880;2023-07-22T03:29:07;103616.81;;;21.68;44.22
72370;BME280;60343;-32.030;115.880;2023-07-22T03:31:42;103615.09;;;21.75;43.53
72370;BME280;60343;-32.030;115.880;2023-07-22T03:34:18;103616.47;;;21.71;45.29
72370;BME280;60343;-32.030;115.880;2023-07-22T03:36:53;103615.78;;;21.77;43.49
72370;BME280;60343;-32.030;115.880;2023-07-22T03:39:28;103614.34;;;21.50;43.96
72370;BME280;60343;-32.030;115.880;2023-07-22T03:42:04;103607.72;;;21.53;44.90
72370;BME280;60343;-32.030;115.880;2023-07-22T03:44:45;103593.75;;;21.48;45.64
72370;BME280;60343;-32.030;115.880;2023-07-22T03:47:21;103602.00;;;21.31;45.29
72370;BME280;60343;-32.030;115.880;2023-07-22T03:49:57;103602.03;;;21.15;46.09
72370;BME280;60343;-32.030;115.880;2023-07-22T03:52:32;103602.72;;;20.93;46.92
72370;BME280;60343;-32.030;115.880;2023-07-22T03:55:08;103600.72;;;20.71;46.88
72370;BME280;60343;-32.030;115.880;2023-07-22T03:57:44;103596.81;;;20.57;46.72
72370;BME280;60343;-32.030;115.880;2023-07-22T04:00:25;103586.75;;;20.58;45.95
72370;BME280;60343;-32.030;115.880;2023-07-22T04:03:00;103578.75;;;20.48;46.20
72370;BME280;60343;-32.030;115.880;2023-07-22T04:05:36;103576.38;;;20.45;49.49
72370;BME280;60343;-32.030;115.880;2023-07-22T04:08:11;103580.97;;;20.61;47.79
72370;BME280;60343;-32.030;115.880;2023-07-22T04:10:53;103579.78;;;20.63;47.11
72370;BME280;60343;-32.030;115.880;2023-07-22T04:13:28;103567.88;;;20.64;46.87
72370;BME280;60343;-32.030;115.880;2023-07-22T04:16:09;103566.34;;;20.70;44.76
72370;BME280;60343;-32.030;115.880;2023-07-22T04:18:45;103567.03;;;20.55;46.16
72370;BME280;60343;-32.030;115.880;2023-07-22T04:21:20;103564.16;;;20.41;47.35
72370;BME280;60343;-32.030;115.880;2023-07-22T04:23:56;103548.16;;;20.38;46.23
72370;BME280;60343;-32.030;115.880;2023-07-22T04:26:31;103545.25;;;20.55;47.06
72370;BME280;60343;-32.030;115.880;2023-07-22T04:29:07;103544.56;;;20.53;46.80
72370;BME280;60343;-32.030;115.880;2023-07-22T04:31:48;103547.28;;;20.53;46.43
72370;BME280;60343;-32.030;115.880;2023-07-22T04:34:23;103540.84;;;20.54;44.71
72370;BME280;60343;-32.030;115.880;2023-07-22T04:36:59;103534.22;;;20.41;46.70
72370;BME280;60343;-32.030;115.880;2023-07-22T04:39:35;103531.97;;;20.52;47.31
72370;BME280;60343;-32.030;115.880;2023-07-22T04:42:10;103524.84;;;20.60;46.23
72370;BME280;60343;-32.030;115.880;2023-07-22T04:44:46;103524.84;;;20.60;44.70
72370;BME280;60343;-32.030;115.880;2023-07-22T04:47:27;103518.03;;;20.64;45.74
72370;BME280;60343;-32.030;115.880;2023-07-22T04:50:08;103519.34;;;20.84;44.24
72370;BME280;60343;-32.030;115.880;2023-07-22T04:52:56;103511.53;;;20.81;45.01
72370;BME280;60343;-32.030;115.880;2023-07-22T04:55:33;103518.03;;;20.72;45.03
72370;BME280;60343;-32.030;115.880;2023-07-22T04:58:08;103509.13;;;20.86;42.33
72370;BME280;60343;-32.030;115.880;2023-07-22T05:00:44;103504.25;;;20.65;45.29
72370;BME280;60343;-32.030;115.880;2023-07-22T05:03:25;103502.53;;;20.64;44.12
72370;BME280;60343;-32.030;115.880;2023-07-22T05:06:00;103501.72;;;20.55;44.62
72370;BME280;60343;-32.030;115.880;2023-07-22T05:08:36;103493.38;;;20.57;44.84
72370;BME280;60343;-32.030;115.880;2023-07-22T05:11:12;103499.63;;;20.74;45.23
72370;BME280;60343;-32.030;115.880;2023-07-22T05:13:47;103481.91;;;20.78;45.24
72370;BME280;60343;-32.030;115.880;2023-07-22T05:16:23;103488.00;;;20.88;44.31
72370;BME280;60343;-32.030;115.880;2023-07-22T05:19:04;103484.59;;;20.94;44.90
72370;BME280;60343;-32.030;115.880;2023-07-22T05:21:39;103478.44;;;21.00;45.24
72370;BME280;60343;-32.030;115.880;2023-07-22T05:24:15;103472.34;;;20.90;46.30
72370;BME280;60343;-32.030;115.880;2023-07-22T05:26:50;103480.44;;;21.22;44.72
72370;BME280;60343;-32.030;115.880;2023-07-22T05:29:25;103468.88;;;21.12;44.82
72370;BME280;60343;-32.030;115.880;2023-07-22T05:32:01;103465.28;;;21.12;46.14
72370;BME280;60343;-32.030;115.880;2023-07-22T05:34:42;103471.75;;;21.19;46.54
72370;BME280;60343;-32.030;115.880;2023-07-22T05:37:17;103464.44;;;21.19;44.23
72370;BME280;60343;-32.030;115.880;2023-07-22T05:39:52;103459.34;;;21.08;45.73
72370;BME280;60343;-32.030;115.880;2023-07-22T05:42:31;103454.31;;;20.89;44.28
72370;BME280;60343;-32.030;115.880;2023-07-22T05:45:07;103448.38;;;20.85;43.87
72370;BME280;60343;-32.030;115.880;2023-07-22T05:47:44;103444.81;;;20.85;44.68
72370;BME280;60343;-32.030;115.880;2023-07-22T05:51:02;103436.63;;;20.85;45.94
72370;BME280;60343;-32.030;115.880;2023-07-22T05:53:49;103432.19;;;20.92;44.60
72370;BME280;60343;-32.030;115.880;2023-07-22T05:56:48;103428.41;;;20.93;44.75
72370;BME280;60343;-32.030;115.880;2023-07-22T05:59:23;103426.00;;;20.98;44.75
72370;BME280;60343;-32.030;115.880;2023-07-22T06:01:59;103424.97;;;21.07;43.00
72370;BME280;60343;-32.030;115.880;2023-07-22T06:04:34;103418.91;;;20.89;43.33
72370;BME280;60343;-32.030;115.880;2023-07-22T06:07:16;103418.66;;;21.07;45.75
72370;BME280;60343;-32.030;115.880;2023-07-22T06:09:51;103418.78;;;21.13;43.87
72370;BME280;60343;-32.030;115.880;2023-07-22T06:12:26;103415.47;;;20.95;42.79
72370;BME280;60343;-32.030;115.880;2023-07-22T06:15:02;103410.97;;;21.10;43.29
72370;BME280;60343;-32.030;115.880;2023-07-22T06:17:37;103409.34;;;21.01;43.18
72370;BME280;60343;-32.030;115.880;2023-07-22T06:20:13;103405.94;;;20.99;43.16
72370;BME280;60343;-32.030;115.880;2023-07-22T06:22:54;103408.13;;;21.04;44.26
72370;BME280;60343;-32.030;115.880;2023-07-22T06:25:29;103401.06;;;21.25;43.31
72370;BME280;60343;-32.030;115.880;2023-07-22T06:28:06;103412.19;;;21.16;43.33
72370;BME280;60343;-32.030;115.880;2023-07-22T06:30:41;103402.00;;;21.02;43.25
72370;BME280;60343;-32.030;115.880;2023-07-22T06:33:16;103396.31;;;21.19;42.46
72370;BME280;60343;-32.030;115.880;2023-07-22T06:35:52;103393.97;;;21.16;44.16
72370;BME280;60343;-32.030;115.880;2023-07-22T06:38:33;103388.69;;;21.15;45.28
72370;BME280;60343;-32.030;115.880;2023-07-22T06:41:08;103386.44;;;21.18;46.68
72370;BME280;60343;-32.030;115.880;2023-07-22T06:43:44;103379.56;;;21.30;43.94
72370;BME280;60343;-32.030;115.880;2023-07-22T06:46:19;103389.63;;;21.53;43.06
72370;BME280;60343;-32.030;115.880;2023-07-22T06:48:55;103383.44;;;21.36;42.56
72370;BME280;60343;-32.030;115.880;2023-07-22T06:51:30;103378.22;;;21.26;42.83
72370;BME280;60343;-32.030;115.880;2023-07-22T06:54:11;103376.94;;;21.14;41.89
72370;BME280;60343;-32.030;115.880;2023-07-22T06:56:47;103383.06;;;21.16;43.17
72370;BME280;60343;-32.030;115.880;2023-07-22T06:59:23;103371.78;;;21.19;42.22
72370;BME280;60343;-32.030;115.880;2023-07-22T07:01:58;103377.38;;;21.26;42.71
72370;BME280;60343;-32.030;115.880;2023-07-22T07:04:34;103368.78;;;21.06;43.70
72370;BME280;60343;-32.030;115.880;2023-07-22T07:07:09;103381.66;;;21.20;42.88
72370;BME280;60343;-32.030;115.880;2023-07-22T07:09:50;103374.78;;;21.32;43.09
72370;BME280;60343;-32.030;115.880;2023-07-22T07:12:25;103380.81;;;21.20;42.76
72370;BME280;60343;-32.030;115.880;2023-07-22T07:15:01;103384.88;;;21.24;43.52
72370;BME280;60343;-32.030;115.880;2023-07-22T07:17:36;103384.47;;;21.35;41.10
72370;BME280;60343;-32.030;115.880;2023-07-22T07:20:13;103379.69;;;21.06;42.82
72370;BME280;60343;-32.030;115.880;2023-07-22T07:22:48;103390.91;;;21.03;43.44
72370;BME280;60343;-32.030;115.880;2023-07-22T07:25:29;103389.94;;;20.96;43.21
72370;BME280;60343;-32.030;115.880;2023-07-22T07:28:05;103378.63;;;21.15;42.23
72370;BME280;60343;-32.030;115.880;2023-07-22T07:30:41;103373.56;;;21.04;42.65
72370;BME280;60343;-32.030;115.880;2023-07-22T07:33:18;103383.50;;;20.97;42.36
72370;BME280;60343;-32.030;115.880;2023-07-22T07:35:53;103375.88;;;20.84;44.35
72370;BME280;60343;-32.030;115.880;2023-07-22T07:38:29;103371.28;;;20.85;43.86
72370;BME280;60343;-32.030;115.880;2023-07-22T07:41:10;103368.59;;;20.77;42.84
72370;BME280;60343;-32.030;115.880;2023-07-22T07:43:46;103366.75;;;20.69;43.96
72370;BME280;60343;-32.030;115.880;2023-07-22T07:46:24;103365.56;;;20.72;43.79
72370;BME280;60343;-32.030;115.880;2023-07-22T07:49:03;103360.03;;;20.88;43.83
72370;BME280;60343;-32.030;115.880;2023-07-22T07:51:39;103365.16;;;20.83;42.71
72370;BME280;60343;-32.030;115.880;2023-07-22T07:54:14;103369.84;;;20.58;43.44
72370;BME280;60343;-32.030;115.880;2023-07-22T07:56:55;103365.16;;;20.52;44.29
72370;BME280;60343;-32.030;115.880;2023-07-22T07:59:34;103364.34;;;20.35;44.76
72370;BME280;60343;-32.030;115.880;2023-07-22T08:02:09;103367.38;;;20.32;45.22
72370;BME280;60343;-32.030;115.880;2023-07-22T08:04:49;103364.63;;;20.48;44.60
72370;BME280;60343;-32.030;115.880;2023-07-22T08:07:25;103360.56;;;20.28;44.35
72370;BME280;60343;-32.030;115.880;2023-07-22T08:10:00;103359.41;;;20.14;45.32
72370;BME280;60343;-32.030;115.880;2023-07-22T08:12:41;103357.22;;;20.02;45.92
72370;BME280;60343;-32.030;115.880;2023-07-22T08:15:17;103352.31;;;20.05;46.17
72370;BME280;60343;-32.030;115.880;2023-07-22T08:17:52;103351.44;;;19.97;46.46
72370;BME280;60343;-32.030;115.880;2023-07-22T08:20:28;103353.00;;;19.83;47.13
72370;BME280;60343;-32.030;115.880;2023-07-22T08:23:03;103358.28;;;19.85;47.45
72370;BME280;60343;-32.030;115.880;2023-07-22T08:25:38;103359.13;;;19.85;47.03
72370;BME280;60343;-32.030;115.880;2023-07-22T08:28:19;103363.88;;;19.83;47.22
72370;BME280;60343;-32.030;115.880;2023-07-22T08:30:56;103360.69;;;19.72;47.69
72370;BME280;60343;-32.030;115.880;2023-07-22T08:33:32;103363.88;;;19.67;46.95
72370;BME280;60343;-32.030;115.880;2023-07-22T08:36:08;103354.91;;;19.66;47.41
72370;BME280;60343;-32.030;115.880;2023-07-22T08:38:43;103360.69;;;19.72;47.63
72370;BME280;60343;-32.030;115.880;2023-07-22T08:41:19;103364.75;;;19.59;47.80
72370;BME280;60343;-32.030;115.880;2023-07-22T08:44:01;103366.75;;;19.41;48.69
72370;BME280;60343;-32.030;115.880;2023-07-22T08:46:40;103368.06;;;19.29;49.36
72370;BME280;60343;-32.030;115.880;2023-07-22T08:49:17;103366.38;;;19.28;48.35
72370;BME280;60343;-32.030;115.880;2023-07-22T08:51:54;103377.59;;;19.33;50.71
72370;BME280;60343;-32.030;115.880;2023-07-22T08:54:31;103378.84;;;19.55;51.54
72370;BME280;60343;-32.030;115.880;2023-07-22T08:57:07;103378.03;;;19.12;53.44
72370;BME280;60343;-32.030;115.880;2023-07-22T08:59:50;103387.81;;;18.89;53.84
72370;BME280;60343;-32.030;115.880;2023-07-22T09:02:26;103388.25;;;18.68;54.35
72370;BME280;60343;-32.030;115.880;2023-07-22T09:05:01;103387.63;;;18.23;55.13
72370;BME280;60343;-32.030;115.880;2023-07-22T09:07:38;103388.47;;;17.97;56.27
72370;BME280;60343;-32.030;115.880;2023-07-22T09:10:14;103397.44;;;17.98;55.60
72370;BME280;60343;-32.030;115.880;2023-07-22T09:12:50;103402.38;;;17.59;56.91
72370;BME280;60343;-32.030;115.880;2023-07-22T09:15:35;103409.69;;;17.49;57.45
72370;BME280;60343;-32.030;115.880;2023-07-22T09:18:10;103404.03;;;17.25;58.36
72370;BME280;60343;-32.030;115.880;2023-07-22T09:20:46;103405.69;;;17.08;59.03
72370;BME280;60343;-32.030;115.880;2023-07-22T09:23:33;103409.47;;;16.97;59.46
72370;BME280;60343;-32.030;115.880;2023-07-22T09:26:13;103409.69;;;16.77;60.33
72370;BME280;60343;-32.030;115.880;2023-07-22T09:28:53;103409.69;;;16.77;60.38
72370;BME280;60343;-32.030;115.880;2023-07-22T09:31:49;103404.34;;;16.57;61.06
72370;BME280;60343;-32.030;115.880;2023-07-22T09:34:25;103412.66;;;16.83;60.68
72370;BME280;60343;-32.030;115.880;2023-07-22T09:37:01;103418.16;;;16.64;61.32
72370;BME280;60343;-32.030;115.880;2023-07-22T09:39:36;103413.44;;;16.56;61.54
72370;BME280;60343;-32.030;115.880;2023-07-22T09:42:11;103413.84;;;16.24;61.95
72370;BME280;60343;-32.030;115.880;2023-07-22T09:44:58;103416.56;;;16.24;62.63
72370;BME280;60343;-32.030;115.880;2023-07-22T09:47:47;103424.09;;;16.11;62.54
72370;BME280;60343;-32.030;115.880;2023-07-22T09:50:25;103423.84;;;15.95;63.44
72370;BME280;60343;-32.030;115.880;2023-07-22T09:53:01;103422.13;;;15.75;63.76
72370;BME280;60343;-32.030;115.880;2023-07-22T09:55:37;103431.78;;;15.49;64.62
72370;BME280;60343;-32.030;115.880;2023-07-22T09:58:17;103425.19;;;15.22;65.28
72370;BME280;60343;-32.030;115.880;2023-07-22T10:00:53;103435.50;;;14.98;65.69
72370;BME280;60343;-32.030;115.880;2023-07-22T10:03:37;103426.63;;;14.77;66.78
72370;BME280;60343;-32.030;115.880;2023-07-22T10:06:14;103435.59;;;14.56;67.03
72370;BME280;60343;-32.030;115.880;2023-07-22T10:08:50;103433.50;;;14.39;67.57
72370;BME280;60343;-32.030;115.880;2023-07-22T10:11:28;103434.09;;;14.22;67.87
72370;BME280;60343;-32.030;115.880;2023-07-22T10:14:04;103433.56;;;14.07;68.58
72370;BME280;60343;-32.030;115.880;2023-07-22T10:16:40;103432.03;;;13.94;69.03
72370;BME280;60343;-32.030;115.880;2023-07-22T10:19:25;103426.00;;;13.81;69.55
72370;BME280;60343;-32.030;115.880;2023-07-22T10:22:04;103435.34;;;13.65;69.96
72370;BME280;60343;-32.030;115.880;2023-07-22T10:24:45;103431.97;;;13.52;70.29
72370;BME280;60343;-32.030;115.880;2023-07-22T10:27:22;103431.03;;;13.42;71.15
72370;BME280;60343;-32.030;115.880;2023-07-22T10:29:58;103435.19;;;13.35;71.20
72370;BME280;60343;-32.030;115.880;2023-07-22T10:32:35;103437.69;;;13.27;72.25
72370;BME280;60343;-32.030;115.880;2023-07-22T10:35:23;103447.47;;;13.17;72.02
72370;BME280;60343;-32.030;115.880;2023-07-22T10:38:10;103445.75;;;13.05;72.40
72370;BME280;60343;-32.030;115.880;2023-07-22T10:40:50;103449.28;;;12.94;72.85
72370;BME280;60343;-32.030;115.880;2023-07-22T10:43:28;103447.09;;;12.88;72.49
72370;BME280;60343;-32.030;115.880;2023-07-22T10:46:08;103451.47;;;12.78;73.23
72370;BME280;60343;-32.030;115.880;2023-07-22T10:48:45;103450.38;;;12.69;73.29
72370;BME280;60343;-32.030;115.880;2023-07-22T10:51:36;103457.47;;;12.59;73.88
72370;BME280;60343;-32.030;115.880;2023-07-22T10:54:15;103452.34;;;12.56;74.06
72370;BME280;60343;-32.030;115.880;2023-07-22T10:57:23;103451.72;;;12.53;74.70
72370;BME280;60343;-32.030;115.880;2023-07-22T10:59:59;103451.34;;;12.46;75.11
72370;BME280;60343;-32.030;115.880;2023-07-22T11:02:35;103454.88;;;12.35;75.52
72370;BME280;60343;-32.030;115.880;2023-07-22T11:05:12;103446.53;;;12.27;76.19
72370;BME280;60343;-32.030;115.880;2023-07-22T11:08:04;103447.91;;;12.22;75.94
72370;BME280;60343;-32.030;115.880;2023-07-22T11:10:53;103456.03;;;12.09;76.93
72370;BME280;60343;-32.030;115.880;2023-07-22T11:13:29;103445.88;;;12.01;76.55
72370;BME280;60343;-32.030;115.880;2023-07-22T11:16:11;103454.28;;;11.97;77.51
72370;BME280;60343;-32.030;115.880;2023-07-22T11:18:47;103444.00;;;11.91;77.74
72370;BME280;60343;-32.030;115.880;2023-07-22T11:21:22;103450.69;;;11.85;77.42
72370;BME280;60343;-32.030;115.880;2023-07-22T11:24:04;103463.38;;;11.83;77.62
72370;BME280;60343;-32.030;115.880;2023-07-22T11:26:40;103461.03;;;11.79;78.02
72370;BME280;60343;-32.030;115.880;2023-07-22T11:29:15;103455.06;;;11.75;78.79
72370;BME280;60343;-32.030;115.880;2023-07-22T11:31:51;103460.84;;;11.69;78.57
72370;BME280;60343;-32.030;115.880;2023-07-22T11:34:27;103464.09;;;11.61;79.15
72370;BME280;60343;-32.030;115.880;2023-07-22T11:37:02;103468.09;;;11.56;79.26
72370;BME280;60343;-32.030;115.880;2023-07-22T11:39:44;103466.06;;;11.47;79.84
72370;BME280;60343;-32.030;115.880;2023-07-22T11:42:19;103477.28;;;11.41;79.35
72370;BME280;60343;-32.030;115.880;2023-07-22T11:44:57;103490.38;;;11.33;79.89
72370;BME280;60343;-32.030;115.880;2023-07-22T11:47:32;103481.41;;;11.21;80.52
72370;BME280;60343;-32.030;115.880;2023-07-22T11:50:09;103485.38;;;11.15;80.36
72370;BME280;60343;-32.030;115.880;2023-07-22T11:52:50;103500.19;;;11.08;81.19
72370;BME280;60343;-32.030;115.880;2023-07-22T11:55:35;103499.03;;;11.00;81.25
72370;BME280;60343;-32.030;115.880;2023-07-22T11:58:11;103500.53;;;10.91;81.06
72370;BME280;60343;-32.030;115.880;2023-07-22T12:00:47;103501.84;;;10.86;81.51
72370;BME280;60343;-32.030;115.880;2023-07-22T12:03:22;103496.03;;;10.79;81.97
72370;BME280;60343;-32.030;115.880;2023-07-22T12:06:01;103495.72;;;10.71;82.03
72370;BME280;60343;-32.030;115.880;2023-07-22T12:08:42;103493.78;;;10.73;82.15
72370;BME280;60343;-32.030;115.880;2023-07-22T12:11:25;103489.19;;;10.75;83.35
72370;BME280;60343;-32.030;115.880;2023-07-22T12:14:13;103481.34;;;10.72;83.02
72370;BME280;60343;-32.030;115.880;2023-07-22T12:16:52;103484.25;;;10.69;82.58
72370;BME280;60343;-32.030;115.880;2023-07-22T12:19:29;103490.03;;;10.63;83.08
72370;BME280;60343;-32.030;115.880;2023-07-22T12:22:05;103487.03;;;10.55;83.28
72370;BME280;60343;-32.030;115.880;2023-07-22T12:24:40;103483.91;;;10.48;83.19
72370;BME280;60343;-32.030;115.880;2023-07-22T12:27:22;103485.84;;;10.46;83.38
72370;BME280;60343;-32.030;115.880;2023-07-22T12:29:57;103491.50;;;10.42;84.10
72370;BME280;60343;-32.030;115.880;2023-07-22T12:32:33;103480.25;;;10.37;84.08
72370;BME280;60343;-32.030;115.880;2023-07-22T12:35:09;103478.13;;;10.42;83.87
72370;BME280;60343;-32.030;115.880;2023-07-22T12:37:44;103482.44;;;10.44;85.44
72370;BME280;60343;-32.030;115.880;2023-07-22T12:40:20;103483.28;;;10.45;85.69
72370;BME280;60343;-32.030;115.880;2023-07-22T12:43:01;103477.25;;;10.41;85.34
72370;BME280;60343;-32.030;115.880;2023-07-22T12:45:36;103489.59;;;10.44;85.43
72370;BME280;60343;-32.030;115.880;2023-07-22T12:48:12;103489.91;;;10.39;85.63
72370;BME280;60343;-32.030;115.880;2023-07-22T12:50:47;103492.16;;;10.32;86.00
72370;BME280;60343;-32.030;115.880;2023-07-22T12:53:23;103496.63;;;10.32;86.32
72370;BME280;60343;-32.030;115.880;2023-07-22T12:55:58;103500.50;;;10.28;86.11
72370;BME280;60343;-32.030;115.880;2023-07-22T12:58:40;103499.22;;;10.21;86.53
72370;BME280;60343;-32.030;115.880;2023-07-22T13:01:32;103504.56;;;10.21;86.72
72370;BME280;60343;-32.030;115.880;2023-07-22T13:04:20;103511.34;;;10.12;86.38
72370;BME280;60343;-32.030;115.880;2023-07-22T13:06:56;103506.53;;;10.05;86.79
72370;BME280;60343;-32.030;115.880;2023-07-22T13:09:32;103502.75;;;9.95;86.63
72370;BME280;60343;-32.030;115.880;2023-07-22T13:12:09;103507.63;;;9.88;86.76
72370;BME280;60343;-32.030;115.880;2023-07-22T13:14:50;103498.41;;;9.79;86.97